Time;durP1;ratioP1;P1;durP2;ratioP2;P2;SDS_P1;SDS_P2;PMS_P1;PMS_P2;Temp;Humidity;BMP_temperature;BMP_pressure;BME280_temperature;BME280_humidity;BME280_pressure;Samples;Min_cycle;Max_cycle;Signal;HPM_P1;HPM_P2
2023/06/03 00:00:28;;;;;;;8.88;4.20;;;;;;;13.30;86.15;102242.66;4999778;28;20030;-70
2023/06/03 00:02:56;;;;;;;6.88;4.30;;;;;;;13.29;86.40;102244.44;4999474;28;20038;-70
2023/06/03 00:05:22;;;;;;;7.47;4.22;;;;;;;13.29;86.21;102246.22;4999989;28;20034;-70
2023/06/03 00:07:48;;;;;;;5.28;4.45;;;;;;;13.25;86.47;102248.91;4999277;28;20038;-70
2023/06/03 00:10:13;;;;;;;4.80;4.18;;;;;;;13.27;86.22;102251.50;5000485;28;20034;-70
2023/06/03 00:12:39;;;;;;;6.28;3.90;;;;;;;13.23;86.61;102250.72;5000114;28;20072;-70
2023/06/03 00:15:06;;;;;;;5.82;4.15;;;;;;;13.24;86.25;102251.59;4999588;28;20038;-70
2023/06/03 00:17:33;;;;;;;6.47;4.10;;;;;;;13.21;85.83;102252.56;5000057;28;20105;-70
2023/06/03 00:20:06;;;;;;;7.18;4.15;;;;;;;13.19;86.99;102248.25;4999472;28;20061;-70
2023/06/03 00:22:36;;;;;;;4.80;4.03;;;;;;;13.20;86.64;102247.34;5000021;28;20022;-70
2023/06/03 00:25:02;;;;;;;7.43;4.25;;;;;;;13.13;86.91;102243.16;4999508;28;20304;-70
2023/06/03 00:27:27;;;;;;;8.10;4.13;;;;;;;13.09;87.27;102242.38;4999705;28;20034;-70
2023/06/03 00:29:52;;;;;;;6.20;3.78;;;;;;;13.08;87.71;102243.31;4999048;28;20049;-70
2023/06/03 00:32:18;;;;;;;11.07;4.75;;;;;;;13.05;87.32;102251.28;4999686;28;20037;-70
2023/06/03 00:34:43;;;;;;;7.68;3.75;;;;;;;13.00;87.55;102240.88;4999653;28;20301;-70
2023/06/03 00:37:09;;;;;;;6.60;4.00;;;;;;;12.96;87.97;102239.25;4998691;28;20025;-70
2023/06/03 00:39:34;;;;;;;6.55;4.28;;;;;;;12.89;88.02;102250.84;4999519;28;20085;-70
2023/06/03 00:42:00;;;;;;;9.38;4.20;;;;;;;12.92;88.63;102242.03;4999254;28;20154;-70
2023/06/03 00:44:25;;;;;;;6.65;4.13;;;;;;;12.89;88.51;102244.72;4999588;28;20042;-70
2023/06/03 00:46:52;;;;;;;7.82;3.70;;;;;;;12.88;88.59;102249.13;4998796;28;20034;-70
2023/06/03 00:49:17;;;;;;;8.27;3.97;;;;;;;12.92;88.49;102237.63;4999456;28;20034;-70
2023/06/03 00:51:43;;;;;;;4.22;3.80;;;;;;;12.91;88.14;102240.28;4999788;28;20333;-70
2023/06/03 00:54:08;;;;;;;6.32;3.72;;;;;;;12.95;87.95;102240.16;4998497;28;20038;-70
2023/06/03 00:56:41;;;;;;;4.50;3.38;;;;;;;12.91;87.99;102241.13;4999499;28;20100;-70
2023/06/03 00:59:07;;;;;;;3.60;3.28;;;;;;;12.95;87.88;102236.66;4998396;28;20357;-70
2023/06/03 01:01:35;;;;;;;7.03;3.65;;;;;;;12.95;87.59;102236.66;4999382;28;20068;-70
2023/06/03 01:04:02;;;;;;;5.30;3.03;;;;;;;12.95;87.52;102229.66;4998696;28;20054;-70
2023/06/03 01:06:47;;;;;;;5.07;3.38;;;;;;;12.96;87.17;102233.97;4981575;28;20038;-70
2023/06/03 01:09:29;;;;;;;6.50;3.78;;;;;;;12.93;87.53;102235.84;4999002;28;20391;-70
2023/06/03 01:12:09;;;;;;;6.10;3.58;;;;;;;12.87;87.56;102236.88;4998693;28;20034;-70
2023/06/03 01:14:43;;;;;;;3.72;3.42;;;;;;;12.84;87.81;102240.47;4998703;28;20065;-70
2023/06/03 01:17:09;;;;;;;13.73;4.00;;;;;;;12.83;87.42;102240.50;4999181;28;20038;-70
2023/06/03 01:19:48;;;;;;;4.75;3.55;;;;;;;12.75;87.73;102240.72;4999671;28;20058;-70
2023/06/03 01:22:20;;;;;;;4.28;3.75;;;;;;;12.68;88.51;102236.53;5000029;28;20312;-70
2023/06/03 01:24:50;;;;;;;5.57;3.60;;;;;;;12.64;88.57;102240.13;4999860;28;20272;-70
2023/06/03 01:27:16;;;;;;;5.13;3.80;;;;;;;12.64;89.09;102232.25;5000458;28;20341;-70
2023/06/03 01:29:43;;;;;;;6.63;3.20;;;;;;;12.62;88.95;102237.53;4999751;28;20041;-70
2023/06/03 01:32:13;;;;;;;6.20;3.50;;;;;;;12.65;88.86;102240.09;4999841;28;20336;-70
2023/06/03 01:34:41;;;;;;;7.72;3.45;;;;;;;12.59;88.43;102242.03;5002225;28;20045;-70
2023/06/03 01:37:08;;;;;;;5.53;3.40;;;;;;;12.59;89.05;102244.66;5004457;28;20046;-70
2023/06/03 01:39:34;;;;;;;4.35;3.35;;;;;;;12.62;88.54;102244.56;5004707;28;20065;-70
2023/06/03 01:41:59;;;;;;;5.15;3.50;;;;;;;12.60;88.53;102241.13;5003289;28;20046;-70
2023/06/03 01:44:26;;;;;;;6.90;4.32;;;;;;;12.60;88.40;102241.97;5004335;28;20030;-70
2023/06/03 01:46:52;;;;;;;4.40;2.75;;;;;;;12.65;88.30;102247.13;5003647;28;20065;-70
2023/06/03 01:49:17;;;;;;;5.22;3.03;;;;;;;12.65;87.75;102247.13;4987203;28;20050;-70
2023/06/03 01:51:43;;;;;;;5.28;3.00;;;;;;;12.69;87.34;102256.63;5004414;28;20065;-70
2023/06/03 01:54:09;;;;;;;3.20;2.85;;;;;;;12.65;87.05;102250.59;5003939;28;20093;-70
2023/06/03 01:56:35;;;;;;;4.40;3.25;;;;;;;12.64;86.90;102251.53;5004092;28;20343;-70
2023/06/03 01:59:00;;;;;;;3.10;2.80;;;;;;;12.63;87.15;102252.41;5003939;28;20046;-70
2023/06/03 02:01:26;;;;;;;4.38;3.30;;;;;;;12.60;86.87;102251.63;5004629;28;20096;-70
2023/06/03 02:03:51;;;;;;;3.83;3.05;;;;;;;12.54;86.53;102238.66;5004039;28;20026;-70
2023/06/03 02:06:17;;;;;;;4.15;3.33;;;;;;;12.57;86.76;102241.19;5003369;28;20030;-70
2023/06/03 02:08:42;;;;;;;3.22;2.80;;;;;;;12.52;86.61;102241.34;5003658;28;20034;-70
2023/06/03 02:11:07;;;;;;;4.32;2.90;;;;;;;12.53;86.96;102240.41;5003881;28;20041;-70
2023/06/03 02:13:33;;;;;;;6.15;3.38;;;;;;;12.48;86.54;102243.19;5003871;28;20097;-70
2023/06/03 02:15:58;;;;;;;4.07;3.22;;;;;;;12.44;86.53;102240.66;5003370;28;20372;-70
2023/06/03 02:18:24;;;;;;;5.57;3.28;;;;;;;12.40;86.31;102239.88;5003056;28;20057;-70
2023/06/03 02:20:49;;;;;;;4.50;3.20;;;;;;;12.42;86.75;102235.44;5002942;28;20062;-70
2023/06/03 02:23:15;;;;;;;6.00;3.50;;;;;;;12.35;86.49;102231.28;5003387;28;20093;-70
2023/06/03 02:25:40;;;;;;;3.50;3.20;;;;;;;12.32;87.21;102230.50;4998637;28;20433;-70
2023/06/03 02:28:07;;;;;;;4.63;3.22;;;;;;;12.32;86.84;102225.22;4987998;28;20089;-70
2023/06/03 02:30:33;;;;;;;8.10;3.80;;;;;;;12.26;86.86;102220.97;4998827;28;20022;-70
2023/06/03 02:32:58;;;;;;;7.95;3.65;;;;;;;12.26;86.78;102216.59;4995948;28;20041;-69
2023/06/03 02:35:24;;;;;;;4.63;2.90;;;;;;;12.28;86.67;102230.56;5000746;28;20052;-69
2023/06/03 02:37:50;;;;;;;4.38;3.40;;;;;;;12.31;86.80;102220.88;4994947;28;20061;-69
2023/06/03 03:13:50;;;;;;;3.60;3.30;;;;;;;12.02;85.90;102225.09;4995523;28;20479;-69
2023/06/03 11:30:56;;;;;;;3.10;1.30;;;;;;;18.79;38.80;102272.28;2083481;29;22736;-71
2023/06/03 11:33:22;;;;;;;3.92;1.02;;;;;;;18.83;40.59;102278.31;4978182;28;20273;-71
2023/06/03 11:35:47;;;;;;;4.55;1.58;;;;;;;18.91;39.59;102266.34;4975212;28;20271;-71
2023/06/03 11:38:14;;;;;;;4.53;0.90;;;;;;;18.96;40.27;102266.97;4979371;28;20057;-71
2023/06/03 11:40:44;;;;;;;2.08;1.13;;;;;;;19.03;37.27;102269.28;4979186;28;20038;-71
2023/06/03 11:43:10;;;;;;;1.65;1.10;;;;;;;19.01;38.61;102271.19;4964618;28;20510;-71
2023/06/03 11:45:37;;;;;;;1.65;0.90;;;;;;;19.04;37.13;102265.72;4961186;28;20112;-71
2023/06/03 11:48:10;;;;;;;2.10;0.93;;;;;;;19.03;38.49;102266.63;4978656;28;20035;-71
2023/06/03 11:50:46;;;;;;;2.88;1.20;;;;;;;19.10;37.29;102268.91;4979305;28;20349;-71
2023/06/03 11:53:33;;;;;;;3.53;1.48;;;;;;;19.01;36.73;102269.41;4978099;28;20073;-71
2023/06/03 11:56:08;;;;;;;3.03;0.93;;;;;;;19.01;37.61;102268.53;4970803;28;20262;-71
2023/06/03 11:58:33;;;;;;;3.38;0.90;;;;;;;19.02;37.87;102262.28;4966614;28;20145;-71
2023/06/03 12:01:07;;;;;;;1.02;0.90;;;;;;;19.02;37.93;102263.13;4969785;28;20101;-71
2023/06/03 12:03:33;;;;;;;4.40;0.98;;;;;;;18.99;38.23;102264.16;4975926;28;20333;-71
2023/06/03 12:06:01;;;;;;;4.07;0.73;;;;;;;19.04;35.63;102263.91;4975869;28;20034;-71
2023/06/03 12:08:40;;;;;;;;;;;;;;;19.04;35.18;102260.41;4976189;28;20042;-71
2023/06/03 12:11:06;;;;;;;4.80;0.95;;;;;;;19.07;37.40;102260.25;4976516;28;19914;-71
2023/06/03 12:13:44;;;;;;;2.10;0.80;;;;;;;19.08;37.01;102252.19;4977005;28;20081;-71
2023/06/03 12:16:09;;;;;;;3.28;1.00;;;;;;;19.12;38.16;102248.44;4976139;28;20054;-71
2023/06/03 12:18:35;;;;;;;0.80;0.60;;;;;;;19.17;38.74;102254.34;4976116;28;20050;-71
2023/06/03 12:21:21;;;;;;;3.38;1.02;;;;;;;19.21;38.52;102249.72;4958652;28;20031;-71
2023/06/03 12:23:47;;;;;;;5.05;0.93;;;;;;;19.23;37.83;102249.63;4975049;28;20042;-71
2023/06/03 12:26:13;;;;;;;4.72;1.42;;;;;;;19.21;36.86;102248.84;4975105;28;20038;-71
2023/06/03 12:28:38;;;;;;;2.15;0.85;;;;;;;19.27;38.00;102254.69;4975616;28;20094;-71
2023/06/03 12:31:12;;;;;;;2.75;0.80;;;;;;;19.32;37.33;102252.66;4975560;28;20042;-71
2023/06/03 12:33:42;;;;;;;1.45;0.70;;;;;;;19.30;38.35;102238.59;4976126;28;20311;-71
2023/06/03 12:36:08;;;;;;;7.35;1.30;;;;;;;19.30;37.30;102241.25;4975884;28;20106;-71
2023/06/03 12:38:34;;;;;;;1.17;1.08;;;;;;;19.38;38.55;102249.63;4975751;28;20345;-71
2023/06/03 12:41:08;;;;;;;2.63;0.90;;;;;;;19.38;37.35;102248.78;4975692;28;20146;-71
2023/06/03 12:43:33;;;;;;;2.28;1.00;;;;;;;19.35;39.13;102246.28;4976373;28;20043;-71
2023/06/03 12:46:18;;;;;;;4.13;1.08;;;;;;;19.34;37.47;102245.44;4974994;28;20061;-71
2023/06/03 12:48:44;;;;;;;0.93;0.82;;;;;;;19.30;36.68;102237.72;4976577;28;20047;-71
2023/06/03 12:51:30;;;;;;;2.45;0.93;;;;;;;19.25;36.95;102230.03;4975948;28;20070;-71
2023/06/03 12:53:56;;;;;;;3.80;0.80;;;;;;;19.32;37.31;102249.13;4975683;28;20321;-71
2023/06/03 12:56:26;;;;;;;3.63;1.20;;;;;;;19.30;36.63;102241.25;4975750;28;20031;-71
2023/06/03 12:58:53;;;;;;;3.20;0.98;;;;;;;19.31;38.41;102240.28;4975770;28;20035;-71
2023/06/03 13:01:22;;;;;;;1.55;0.80;;;;;;;19.35;38.42;102233.84;4976411;28;20047;-71
2023/06/03 13:03:47;;;;;;;;;;;;;;;19.45;38.19;102238.69;4976310;28;20042;-72
2023/06/03 13:06:14;;;;;;;1.70;0.80;;;;;;;19.46;36.60;102240.38;4976265;28;19925;-72
2023/06/03 13:08:39;;;;;;;1.58;1.00;;;;;;;19.47;37.25;102231.47;4976468;28;20357;-72
2023/06/03 13:11:05;;;;;;;4.88;1.13;;;;;;;19.56;37.68;102236.28;4975383;28;20046;-72
2023/06/03 13:13:33;;;;;;;2.63;1.13;;;;;;;19.55;35.65;102231.88;4975624;28;20034;-72
2023/06/03 13:16:03;;;;;;;1.80;1.10;;;;;;;19.56;36.56;102229.16;4975394;28;20046;-72
2023/06/03 13:18:28;;;;;;;1.45;1.00;;;;;;;19.49;35.95;102234.91;4976180;28;20035;-72
2023/06/03 13:20:54;;;;;;;2.72;1.20;;;;;;;19.47;36.44;102232.34;4975859;28;20268;-72
2023/06/03 13:23:19;;;;;;;1.95;0.90;;;;;;;19.53;36.93;102231.97;4975630;28;20034;-72
2023/06/03 13:25:45;;;;;;;0.70;0.70;;;;;;;19.55;36.85;102226.56;4976013;28;20349;-71
2023/06/03 13:28:10;;;;;;;0.70;0.70;;;;;;;19.54;35.75;102228.38;4975377;28;20042;-71
2023/06/03 13:30:36;;;;;;;5.45;0.80;;;;;;;19.55;36.77;102222.16;4978031;28;20269;-71
2023/06/03 13:33:02;;;;;;;3.92;1.00;;;;;;;19.61;35.67;102218.28;4979322;28;20089;-71
2023/06/03 13:35:27;;;;;;;2.22;1.05;;;;;;;19.66;34.96;102218.00;4979904;28;20559;-72
2023/06/03 13:37:53;;;;;;;2.63;0.85;;;;;;;19.69;34.36;102213.38;4979345;28;20078;-71
2023/06/03 13:40:18;;;;;;;3.15;0.90;;;;;;;19.67;34.66;102217.06;4979476;28;20257;-71
2023/06/03 13:42:44;;;;;;;3.28;0.90;;;;;;;19.68;35.36;102216.09;4979705;28;20133;-72
2023/06/03 13:45:10;;;;;;;4.57;0.73;;;;;;;19.69;34.57;102216.03;4978613;28;20034;-71
2023/06/03 13:47:36;;;;;;;1.10;0.60;;;;;;;19.69;34.06;102224.00;4979515;28;20070;-71
2023/06/03 13:50:05;;;;;;;1.80;0.90;;;;;;;19.67;33.54;102219.72;4979419;28;20392;-71
2023/06/03 13:52:31;;;;;;;2.58;0.85;;;;;;;19.69;33.49;102217.84;4979858;28;20046;-71
2023/06/03 13:54:56;;;;;;;1.30;0.90;;;;;;;19.65;33.71;102208.34;4979473;28;20118;-71
2023/06/03 13:57:22;;;;;;;5.13;0.80;;;;;;;19.62;34.20;102205.84;4979156;28;20285;-71
2023/06/03 13:59:47;;;;;;;1.45;0.88;;;;;;;19.66;34.15;102208.22;4978891;28;20085;-71
2023/06/03 14:02:14;;;;;;;3.60;0.93;;;;;;;19.68;33.86;102210.78;4978969;28;20292;-71
2023/06/03 14:04:40;;;;;;;2.45;0.98;;;;;;;19.70;34.92;102200.91;4979784;28;20042;-71
2023/06/03 14:07:09;;;;;;;4.30;0.80;;;;;;;19.78;33.94;102200.53;4979133;28;20049;-71
2023/06/03 14:09:35;;;;;;;1.05;0.82;;;;;;;19.74;32.94;102206.03;4978971;28;20081;-71
2023/06/03 14:12:01;;;;;;;2.78;0.68;;;;;;;19.74;33.16;102192.72;4979185;28;20200;-71
2023/06/03 14:14:27;;;;;;;2.05;0.52;;;;;;;19.76;33.26;102200.63;4979077;28;20047;-71
2023/06/03 14:16:52;;;;;;;1.33;0.65;;;;;;;19.78;33.03;102201.38;4978671;28;20050;-71
2023/06/03 14:19:18;;;;;;;3.28;0.60;;;;;;;19.75;32.73;102201.56;4978840;28;20342;-71
2023/06/03 14:21:43;;;;;;;1.33;0.80;;;;;;;19.79;33.07;102204.88;4961593;28;20060;-71
2023/06/03 14:24:10;;;;;;;4.53;0.80;;;;;;;19.74;32.55;102206.03;4978011;28;20039;-71
2023/06/03 14:26:36;;;;;;;3.28;0.80;;;;;;;19.67;32.76;102201.13;4978562;28;20046;-72
2023/06/03 14:29:06;;;;;;;1.35;0.63;;;;;;;19.70;32.83;102192.94;4978278;28;20039;-72
2023/06/03 14:31:31;;;;;;;0.75;0.70;;;;;;;19.69;32.82;102194.75;4978593;28;20043;-71
2023/06/03 14:33:57;;;;;;;1.17;0.70;;;;;;;19.73;33.14;102203.44;4978557;28;20081;-71
2023/06/03 14:36:22;;;;;;;4.03;0.80;;;;;;;19.75;32.92;102196.22;4978829;28;20026;-71
2023/06/03 14:38:47;;;;;;;2.40;0.80;;;;;;;19.71;32.36;102195.53;4978383;28;20046;-71
2023/06/03 14:41:13;;;;;;;2.28;0.70;;;;;;;19.67;32.20;102195.81;4978505;28;20532;-71
2023/06/03 14:43:38;;;;;;;2.40;0.77;;;;;;;19.69;33.19;102193.91;4979196;28;20070;-71
2023/06/03 14:46:04;;;;;;;4.60;0.80;;;;;;;19.72;32.38;102194.59;4977530;28;20041;-71
2023/06/03 14:48:30;;;;;;;1.10;0.52;;;;;;;19.73;33.12;102195.47;4961186;28;20043;-71
2023/06/03 14:50:55;;;;;;;0.57;0.57;;;;;;;19.70;33.20;102182.31;4978155;28;20042;-71
2023/06/03 14:53:21;;;;;;;5.07;1.35;;;;;;;19.72;32.90;102183.97;4978661;28;20051;-71
2023/06/03 14:55:47;;;;;;;2.25;0.52;;;;;;;19.75;32.25;102185.59;4978130;28;20382;-71
2023/06/03 14:58:14;;;;;;;2.05;0.50;;;;;;;19.74;32.06;102186.56;4977777;28;20035;-71
2023/06/03 15:00:40;;;;;;;0.60;0.60;;;;;;;19.74;32.62;102178.59;4977399;28;20050;-71
2023/06/03 15:03:05;;;;;;;1.35;0.52;;;;;;;19.72;32.03;102183.13;4977713;28;20515;-71
2023/06/03 15:05:30;;;;;;;0.75;0.70;;;;;;;19.69;32.51;102188.59;4988889;28;20057;-71
2023/06/03 15:07:56;;;;;;;3.92;0.80;;;;;;;19.73;32.31;102180.38;4976825;28;20030;-71
2023/06/03 15:10:21;;;;;;;1.30;0.73;;;;;;;19.69;31.97;102181.47;4977741;28;20233;-71
2023/06/03 15:12:47;;;;;;;1.33;0.57;;;;;;;19.69;31.93;102172.66;4977744;28;20063;-71
2023/06/03 15:15:13;;;;;;;0.57;0.57;;;;;;;19.72;32.61;102177.78;4977524;28;20045;-71
2023/06/03 15:17:38;;;;;;;3.35;0.70;;;;;;;19.71;32.30;102171.59;4972152;28;20038;-71
2023/06/03 15:20:04;;;;;;;2.05;0.80;;;;;;;19.72;33.40;102169.81;4976479;28;20031;-71
2023/06/03 15:22:30;;;;;;;3.53;0.70;;;;;;;19.75;33.29;102169.66;4976973;28;20042;-71
2023/06/03 15:24:55;;;;;;;0.82;0.65;;;;;;;19.76;32.34;102168.72;4977706;28;20043;-71
2023/06/03 15:27:21;;;;;;;0.70;0.60;;;;;;;19.75;31.74;102167.00;4977226;28;20257;-71
2023/06/03 15:29:46;;;;;;;2.00;0.60;;;;;;;19.75;32.39;102165.22;4977371;28;20047;-71
2023/06/03 15:32:11;;;;;;;2.17;0.73;;;;;;;19.75;32.51;102161.69;4976948;28;20046;-72
2023/06/03 15:34:37;;;;;;;1.85;0.70;;;;;;;19.77;32.70;102161.59;4976738;28;20339;-72
2023/06/03 15:37:03;;;;;;;1.25;0.70;;;;;;;19.77;32.29;102162.44;4976459;28;20286;-72
2023/06/03 15:39:29;;;;;;;2.13;0.73;;;;;;;19.78;32.32;102163.31;4976619;28;20360;-71
2023/06/03 15:41:55;;;;;;;1.10;0.73;;;;;;;19.78;32.42;102161.50;4976284;28;20039;-71
2023/06/03 15:44:20;;;;;;;2.50;0.63;;;;;;;19.84;31.82;102170.94;4976479;28;20026;-71
2023/06/03 15:46:45;;;;;;;1.10;0.50;;;;;;;19.77;32.17;102165.09;4976297;28;20045;-71
2023/06/03 15:49:11;;;;;;;5.75;0.90;;;;;;;19.75;31.83;102161.69;4977382;28;20333;-71
2023/06/03 15:51:37;;;;;;;2.85;0.82;;;;;;;19.71;31.72;102163.63;4960183;28;20049;-71
2023/06/03 15:54:05;;;;;;;2.05;0.70;;;;;;;19.70;32.75;102169.91;4977223;28;20043;-71
2023/06/03 15:56:31;;;;;;;1.45;0.65;;;;;;;19.70;32.91;102167.25;4977495;28;20109;-71
2023/06/03 15:58:56;;;;;;;3.25;0.70;;;;;;;19.75;33.12;102157.25;4977309;28;20041;-71
2023/06/03 16:01:22;;;;;;;1.13;0.80;;;;;;;19.77;32.23;102156.28;4977223;28;20034;-71
2023/06/03 16:03:47;;;;;;;2.13;0.60;;;;;;;19.74;32.49;102154.66;4977309;28;20030;-71
2023/06/03 16:06:13;;;;;;;1.98;1.05;;;;;;;19.70;32.87;102153.97;4977404;28;20321;-72
2023/06/03 16:08:38;;;;;;;1.38;0.65;;;;;;;19.69;31.86;102167.34;4977539;28;20042;-72
2023/06/03 16:11:04;;;;;;;3.40;0.80;;;;;;;19.64;32.94;102154.31;4976942;28;20038;-71
2023/06/03 16:13:29;;;;;;;0.70;0.70;;;;;;;19.62;32.58;102156.19;4977526;28;20027;-72
2023/06/03 16:15:57;;;;;;;6.10;1.10;;;;;;;19.60;32.51;102158.09;4976956;28;20039;-72
2023/06/03 16:18:23;;;;;;;2.45;0.80;;;;;;;19.60;33.02;102151.94;4977250;28;20045;-72
2023/06/03 16:20:49;;;;;;;2.15;0.70;;;;;;;19.59;32.61;102148.41;4977205;28;20035;-72
2023/06/03 16:23:16;;;;;;;1.05;0.80;;;;;;;19.61;32.97;102149.19;4976805;28;20057;-72
2023/06/03 16:25:43;;;;;;;2.35;0.93;;;;;;;19.59;33.28;102148.41;4977450;28;20444;-72
2023/06/03 16:28:09;;;;;;;3.40;0.65;;;;;;;19.58;32.14;102145.84;4976889;28;20360;-71
2023/06/03 16:30:34;;;;;;;0.85;0.60;;;;;;;19.56;32.00;102144.13;4977114;28;20142;-71
2023/06/03 16:33:00;;;;;;;3.30;0.52;;;;;;;19.53;31.88;102144.28;4971728;28;20058;-72
2023/06/03 16:35:25;;;;;;;3.85;1.05;;;;;;;19.52;32.31;102137.28;4976633;28;20038;-72
2023/06/03 16:37:50;;;;;;;5.00;0.70;;;;;;;19.49;32.53;102140.09;4977027;28;20350;-72
2023/06/03 16:40:16;;;;;;;1.10;0.80;;;;;;;19.48;32.31;102140.19;4977071;28;20110;-72
2023/06/03 16:42:41;;;;;;;12.00;1.00;;;;;;;19.47;32.99;102134.03;4977310;28;20448;-71
2023/06/03 16:45:08;;;;;;;2.58;0.80;;;;;;;19.49;33.24;102145.44;4958993;28;20034;-71
2023/06/03 16:47:35;;;;;;;2.30;0.85;;;;;;;19.48;32.73;102134.88;4976809;28;20042;-71
2023/06/03 16:50:01;;;;;;;3.53;0.75;;;;;;;19.49;33.20;102136.59;4959387;28;20114;-71
2023/06/03 16:52:26;;;;;;;0.77;0.77;;;;;;;19.45;33.45;102133.28;4976772;28;20041;-71
2023/06/03 16:54:52;;;;;;;3.15;0.80;;;;;;;19.43;33.00;102140.47;4976198;28;20042;-71
2023/06/03 16:57:17;;;;;;;3.67;0.75;;;;;;;19.38;32.49;102130.09;4976439;28;20050;-71
2023/06/03 16:59:43;;;;;;;0.75;0.75;;;;;;;19.38;32.51;102138.06;4976764;28;20077;-71
2023/06/03 17:02:08;;;;;;;2.60;0.70;;;;;;;19.41;32.82;102130.88;4975501;28;20125;-71
2023/06/03 17:04:34;;;;;;;4.57;0.90;;;;;;;19.41;33.10;102138.84;4958807;28;20105;-71
2023/06/03 17:06:59;;;;;;;2.33;0.90;;;;;;;19.38;32.30;102130.09;4976330;28;20034;-71
2023/06/03 17:09:24;;;;;;;4.00;0.60;;;;;;;19.39;32.07;102136.25;4942801;28;20057;-71
2023/06/03 17:11:50;;;;;;;2.63;0.80;;;;;;;19.38;32.85;102131.91;4975681;28;20070;-71
2023/06/03 17:14:15;;;;;;;1.95;0.73;;;;;;;19.35;32.43;102140.91;4959055;28;20401;-71
2023/06/03 17:16:42;;;;;;;0.80;0.80;;;;;;;19.32;32.92;102127.81;4958269;28;20456;-71
2023/06/03 17:19:08;;;;;;;1.10;0.70;;;;;;;19.31;32.10;102135.88;4975885;28;20368;-71
2023/06/03 17:21:33;;;;;;;0.65;0.65;;;;;;;19.31;32.50;102138.53;4975651;28;20117;-71
2023/06/03 17:23:58;;;;;;;0.98;0.80;;;;;;;19.31;32.91;102130.53;4976402;28;20318;-71
2023/06/03 17:26:25;;;;;;;3.33;0.80;;;;;;;19.29;32.02;102135.94;4976662;28;20034;-71
2023/06/03 17:28:50;;;;;;;1.17;0.90;;;;;;;19.26;32.38;102138.75;4976136;28;20364;-71
2023/06/03 17:31:16;;;;;;;2.58;0.98;;;;;;;19.22;32.09;102141.69;4975917;28;20039;-71
2023/06/03 17:33:41;;;;;;;3.05;1.30;;;;;;;19.18;33.07;102136.56;4976076;28;20102;-71
2023/06/03 17:36:07;;;;;;;3.13;0.90;;;;;;;19.17;32.91;102133.97;4975965;28;20338;-71
2023/06/03 17:38:33;;;;;;;2.00;0.80;;;;;;;19.17;32.49;102137.50;4976533;28;20102;-71
2023/06/03 17:40:58;;;;;;;2.83;0.80;;;;;;;19.17;32.41;102131.31;4976400;28;20039;-71
2023/06/03 17:43:23;;;;;;;2.65;0.73;;;;;;;19.17;32.67;102141.94;4976214;28;20054;-71
2023/06/03 17:45:49;;;;;;;3.28;0.90;;;;;;;19.15;32.88;102143.84;4975542;28;20404;-71
2023/06/03 17:48:14;;;;;;;1.80;0.70;;;;;;;19.12;33.73;102134.25;4976094;28;20245;-71
2023/06/03 17:50:39;;;;;;;2.70;0.93;;;;;;;19.14;34.07;102132.38;4976547;28;20405;-71
2023/06/03 17:53:05;;;;;;;1.70;0.90;;;;;;;19.13;33.88;102135.09;4958243;28;20293;-71
2023/06/03 17:55:30;;;;;;;3.70;1.55;;;;;;;19.12;33.71;102128.94;4976352;28;20106;-71
2023/06/03 17:57:56;;;;;;;0.75;0.75;;;;;;;19.11;34.21;102131.69;4975458;28;20285;-71
2023/06/03 18:00:22;;;;;;;2.72;1.20;;;;;;;19.10;34.16;102122.88;4975768;28;20089;-71
2023/06/03 18:02:48;;;;;;;4.53;1.05;;;;;;;19.10;34.63;102122.00;4975513;28;20042;-71
2023/06/03 18:05:13;;;;;;;6.35;1.15;;;;;;;19.09;34.47;102133.56;4975910;28;20026;-71
2023/06/03 18:07:40;;;;;;;0.90;0.80;;;;;;;19.06;34.49;102136.38;4976119;28;20110;-71
2023/06/03 18:10:06;;;;;;;1.63;0.90;;;;;;;19.05;35.09;102132.03;4975595;28;20239;-71
2023/06/03 18:12:31;;;;;;;1.33;0.85;;;;;;;19.01;35.11;102135.78;4953763;28;20062;-71
2023/06/03 18:14:57;;;;;;;2.15;0.90;;;;;;;18.99;35.44;102147.34;4967610;28;20082;-71
2023/06/03 18:17:25;;;;;;;1.00;0.90;;;;;;;18.98;35.19;102136.81;4969194;28;20039;-71
2023/06/03 18:19:55;;;;;;;1.70;1.10;;;;;;;18.94;35.38;102143.25;4976643;28;20050;-71
2023/06/03 18:22:24;;;;;;;2.92;0.93;;;;;;;18.91;36.09;102138.94;4979199;28;20434;-71
2023/06/03 18:24:49;;;;;;;2.70;0.95;;;;;;;18.89;36.15;102146.16;4979472;28;20121;-71
2023/06/03 18:27:15;;;;;;;1.45;0.93;;;;;;;18.87;36.40;102149.84;4979367;28;20069;-71
2023/06/03 18:29:40;;;;;;;3.35;0.90;;;;;;;18.85;35.98;102147.25;4979649;28;20050;-71
2023/06/03 18:32:06;;;;;;;1.58;0.93;;;;;;;18.84;36.14;102150.00;4978346;28;20058;-71
2023/06/03 18:34:31;;;;;;;0.98;0.93;;;;;;;18.81;36.16;102143.06;4961250;28;20360;-71
2023/06/03 18:36:57;;;;;;;1.30;0.90;;;;;;;18.78;36.16;102149.34;4979234;28;20035;-71
2023/06/03 18:39:22;;;;;;;1.25;0.88;;;;;;;18.74;35.83;102146.97;4979240;28;20065;-71
2023/06/03 18:41:48;;;;;;;3.05;0.98;;;;;;;18.72;36.44;102148.81;4978704;28;20045;-71
2023/06/03 18:44:13;;;;;;;4.82;0.80;;;;;;;18.67;37.01;102151.75;4978896;28;20338;-71
2023/06/03 18:46:38;;;;;;;4.40;0.90;;;;;;;18.61;37.15;102150.28;4978540;28;20046;-71
2023/06/03 18:49:04;;;;;;;2.33;0.73;;;;;;;18.60;37.18;102147.69;4978114;28;20058;-71
2023/06/03 18:51:29;;;;;;;1.35;0.85;;;;;;;18.58;37.71;102153.09;4979173;28;20085;-71
2023/06/03 18:53:55;;;;;;;3.40;0.93;;;;;;;18.54;37.66;102148.03;4978559;28;20046;-71
2023/06/03 18:56:21;;;;;;;1.88;1.50;;;;;;;18.51;37.95;102149.03;4978763;28;20050;-71
2023/06/03 18:58:47;;;;;;;2.95;1.23;;;;;;;18.47;38.49;102157.25;4978631;28;20442;-71
2023/06/03 19:01:12;;;;;;;4.05;2.35;;;;;;;18.42;39.20;102162.81;4978229;28;20353;-71
2023/06/03 19:03:39;;;;;;;2.90;2.20;;;;;;;18.35;39.28;102159.59;4979249;28;20535;-71
2023/06/03 19:06:04;;;;;;;3.30;2.40;;;;;;;18.30;39.83;102158.13;4977820;28;20031;-71
2023/06/03 19:08:30;;;;;;;5.22;1.40;;;;;;;18.26;40.87;102162.75;4978837;28;20062;-71
2023/06/03 19:10:55;;;;;;;2.47;1.70;;;;;;;18.17;41.58;102172.06;4969144;28;20035;-71
2023/06/03 19:13:21;;;;;;;3.05;1.10;;;;;;;18.11;43.22;102171.50;4967024;28;20106;-71
2023/06/03 19:15:47;;;;;;;2.50;1.23;;;;;;;18.01;44.22;102168.47;4973769;28;20045;-71
2023/06/03 19:18:12;;;;;;;4.10;1.35;;;;;;;17.98;45.00;102171.28;4977629;28;20325;-71
2023/06/03 19:20:38;;;;;;;1.35;1.10;;;;;;;17.91;45.63;102175.16;4977335;28;20042;-71
2023/06/03 19:23:04;;;;;;;3.88;1.15;;;;;;;17.80;46.15;102171.22;4975446;28;20043;-71
2023/06/03 19:25:29;;;;;;;6.50;1.40;;;;;;;17.73;47.00;102172.47;4972525;28;20590;-71
2023/06/03 19:27:55;;;;;;;2.20;1.10;;;;;;;17.63;47.01;102182.66;4972682;28;20030;-71
2023/06/03 19:30:20;;;;;;;1.08;0.98;;;;;;;17.62;47.02;102166.84;4952642;28;20023;-71
2023/06/03 19:32:46;;;;;;;5.10;1.10;;;;;;;17.58;47.46;102176.72;4964153;28;20304;-71
2023/06/03 19:35:11;;;;;;;2.83;1.73;;;;;;;17.54;47.53;102183.13;4967088;28;20042;-71
2023/06/03 19:37:38;;;;;;;3.05;1.45;;;;;;;17.46;47.92;102179.97;4968875;28;20495;-71
2023/06/03 19:40:05;;;;;;;1.20;1.00;;;;;;;17.36;48.15;102178.72;4964728;28;20042;-71
2023/06/03 19:42:31;;;;;;;3.00;1.17;;;;;;;17.31;48.44;102184.22;4964691;28;20345;-71
2023/06/03 19:44:56;;;;;;;5.32;1.30;;;;;;;17.24;48.96;102180.16;4966878;28;20027;-71
2023/06/03 19:47:21;;;;;;;3.90;1.00;;;;;;;17.24;48.71;102181.00;4975798;28;20046;-71
2023/06/03 19:49:47;;;;;;;8.35;1.42;;;;;;;17.17;48.99;102191.94;4975835;28;20089;-71
2023/06/03 19:52:12;;;;;;;1.60;1.10;;;;;;;17.14;49.26;102186.81;4976802;28;20069;-71
2023/06/03 19:54:37;;;;;;;4.25;2.90;;;;;;;17.11;49.36;102192.25;4977480;28;20080;-71
2023/06/03 19:57:07;;;;;;;9.43;1.95;;;;;;;17.08;49.35;102202.06;4976727;28;20324;-71
2023/06/03 19:59:36;;;;;;;5.78;1.55;;;;;;;17.02;49.53;102209.41;4977483;28;20089;-71
2023/06/03 20:02:04;;;;;;;;;;;;;;;16.99;49.77;102202.47;4974145;28;20019;-71
2023/06/03 20:04:30;;;;;;;7.35;3.25;;;;;;;16.94;50.05;102203.63;4967788;28;20433;-71
2023/06/03 20:06:55;;;;;;;5.90;3.03;;;;;;;16.87;50.45;102206.53;4972447;28;20030;-71
2023/06/03 20:09:21;;;;;;;4.20;3.35;;;;;;;16.85;50.91;102207.53;4974334;28;20273;-71
2023/06/03 20:11:47;;;;;;;4.22;3.83;;;;;;;16.77;51.04;102215.81;4957209;28;20061;-71